sensor_id;sensor_type;location;lat;lon;timestamp;pressure;altitude;pressure_sealevel;temperature;humidity
28181;BME280;15464;50.988;10.318;2023-04-27T00:01:12;99226.91;;;3.46;71.62
28181;BME280;15464;50.988;10.318;2023-04-27T00:03:39;99224.28;;;3.46;71.85
28181;BME280;15464;50.988;10.318;2023-04-27T00:06:07;99224.06;;;3.50;72.05
28181;BME280;15464;50.988;10.318;2023-04-27T00:08:35;99224.28;;;3.46;71.55
28181;BME280;15464;50.988;10.318;2023-04-27T00:11:01;99221.00;;;3.42;73.43
28181;BME280;15464;50.988;10.318;2023-04-27T00:13:28;99214.91;;;3.42;73.19
28181;BME280;15464;50.988;10.318;2023-04-27T00:15:55;99216.59;;;3.43;73.35
28181;BME280;15464;50.988;10.318;2023-04-27T00:18:22;99218.44;;;3.41;73.30
28181;BME280;15464;50.988;10.318;2023-04-27T00:20:48;99225.41;;;3.42;73.70
28181;BME280;15464;50.988;10.318;2023-04-27T00:23:15;99216.69;;;3.41;74.13
28181;BME280;15464;50.988;10.318;2023-04-27T00:25:42;99216.75;;;3.40;73.96
28181;BME280;15464;50.988;10.318;2023-04-27T00:28:09;99219.44;;;3.38;73.57
28181;BME280;15464;50.988;10.318;2023-04-27T00:30:35;99224.63;;;3.40;74.10
28181;BME280;15464;50.988;10.318;2023-04-27T00:33:02;99223.69;;;3.41;73.89
28181;BME280;15464;50.988;10.318;2023-04-27T00:35:31;99218.44;;;3.41;72.92
28181;BME280;15464;50.988;10.318;2023-04-27T00:37:58;99214.19;;;3.38;73.13
28181;BME280;15464;50.988;10.318;2023-04-27T00:40:25;99217.84;;;3.36;73.24
28181;BME280;15464;50.988;10.318;2023-04-27T00:42:52;99214.31;;;3.37;73.55
28181;BME280;15464;50.988;10.318;2023-04-27T00:45:18;99216.94;;;3.37;73.67
28181;BME280;15464;50.988;10.318;2023-04-27T00:47:45;99209.06;;;3.37;74.05
28181;BME280;15464;50.988;10.318;2023-04-27T00:50:13;99206.44;;;3.37;73.51
28181;BME280;15464;50.988;10.318;2023-04-27T00:52:40;99211.69;;;3.37;73.34
28181;BME280;15464;50.988;10.318;2023-04-27T00:55:07;99209.81;;;3.39;73.92
28181;BME280;15464;50.988;10.318;2023-04-27T00:57:34;99215.91;;;3.39;74.83
28181;BME280;15464;50.988;10.318;2023-04-27T01:00:01;99209.81;;;3.39;74.10
28181;BME280;15464;50.988;10.318;2023-04-27T01:02:32;99213.34;;;3.38;73.59
28181;BME280;15464;50.988;10.318;2023-04-27T01:04:59;99209.81;;;3.39;73.67
28181;BME280;15464;50.988;10.318;2023-04-27T01:07:27;99212.44;;;3.39;74.58
28181;BME280;15464;50.988;10.318;2023-04-27T01:09:54;99214.19;;;3.38;74.24
28181;BME280;15464;50.988;10.318;2023-04-27T01:12:21;99217.78;;;3.37;74.79
28181;BME280;15464;50.988;10.318;2023-04-27T01:14:48;99218.59;;;3.38;75.12
28181;BME280;15464;50.988;10.318;2023-04-27T01:17:15;99214.13;;;3.40;74.65
28181;BME280;15464;50.988;10.318;2023-04-27T01:19:43;99222.84;;;3.40;74.33
28181;BME280;15464;50.988;10.318;2023-04-27T01:22:10;99224.78;;;3.37;73.97
28181;BME280;15464;50.988;10.318;2023-04-27T01:24:37;99214.38;;;3.35;73.65
28181;BME280;15464;50.988;10.318;2023-04-27T01:27:04;99216.16;;;3.35;73.58
28181;BME280;15464;50.988;10.318;2023-04-27T01:29:30;99218.06;;;3.31;73.78
28181;BME280;15464;50.988;10.318;2023-04-27T01:31:57;99216.41;;;3.30;73.98
28181;BME280;15464;50.988;10.318;2023-04-27T01:34:24;99217.38;;;3.28;74.48
28181;BME280;15464;50.988;10.318;2023-04-27T01:36:51;99220.78;;;3.30;74.39
28181;BME280;15464;50.988;10.318;2023-04-27T01:39:17;99222.31;;;3.34;73.77
28181;BME280;15464;50.988;10.318;2023-04-27T01:41:44;99219.63;;;3.35;74.23
28181;BME280;15464;50.988;10.318;2023-04-27T01:44:11;99218.59;;;3.38;73.65
28181;BME280;15464;50.988;10.318;2023-04-27T01:46:37;99223.94;;;3.36;74.20
28181;BME280;15464;50.988;10.318;2023-04-27T01:49:04;99219.63;;;3.35;74.46
28181;BME280;15464;50.988;10.318;2023-04-27T01:51:31;99221.31;;;3.36;75.20
28181;BME280;15464;50.988;10.318;2023-04-27T01:53:58;99222.00;;;3.40;75.72
28181;BME280;15464;50.988;10.318;2023-04-27T01:56:25;99225.41;;;3.42;75.63
28181;BME280;15464;50.988;10.318;2023-04-27T01:58:52;99226.06;;;3.45;75.63
28181;BME280;15464;50.988;10.318;2023-04-27T02:01:19;99233.00;;;3.46;76.48
28181;BME280;15464;50.988;10.318;2023-04-27T02:03:45;99238.34;;;3.45;76.42
28181;BME280;15464;50.988;10.318;2023-04-27T02:06:13;99244.34;;;3.47;75.71
28181;BME280;15464;50.988;10.318;2023-04-27T02:08:39;99244.28;;;3.48;75.40
28181;BME280;15464;50.988;10.318;2023-04-27T02:11:06;99242.59;;;3.47;75.24
28181;BME280;15464;50.988;10.318;2023-04-27T02:13:33;99247.75;;;3.49;75.48
28181;BME280;15464;50.988;10.318;2023-04-27T02:16:00;99249.41;;;3.50;76.07
28181;BME280;15464;50.988;10.318;2023-04-27T02:18:29;99247.75;;;3.49;76.96
28181;BME280;15464;50.988;10.318;2023-04-27T02:20:57;99250.38;;;3.49;76.33
28181;BME280;15464;50.988;10.318;2023-04-27T02:23:24;99255.53;;;3.50;76.83
28181;BME280;15464;50.988;10.318;2023-04-27T02:25:51;99266.00;;;3.50;77.06
28181;BME280;15464;50.988;10.318;2023-04-27T02:28:18;99256.69;;;3.45;76.97
28181;BME280;15464;50.988;10.318;2023-04-27T02:30:45;99258.56;;;3.43;76.76
28181;BME280;15464;50.988;10.318;2023-04-27T02:33:11;99260.22;;;3.44;76.46
28181;BME280;15464;50.988;10.318;2023-04-27T02:35:38;99263.63;;;3.46;75.99
28181;BME280;15464;50.988;10.318;2023-04-27T02:38:05;99267.03;;;3.48;75.77
28181;BME280;15464;50.988;10.318;2023-04-27T02:40:32;99278.69;;;3.42;76.25
28181;BME280;15464;50.988;10.318;2023-04-27T02:42:58;99276.13;;;3.41;76.45
28181;BME280;15464;50.988;10.318;2023-04-27T02:45:25;99275.44;;;3.37;76.43
28181;BME280;15464;50.988;10.318;2023-04-27T02:47:52;99274.50;;;3.38;76.29
28181;BME280;15464;50.988;10.318;2023-04-27T02:50:19;99278.81;;;3.39;76.25
28181;BME280;15464;50.988;10.318;2023-04-27T02:52:45;99270.81;;;3.42;76.04
28181;BME280;15464;50.988;10.318;2023-04-27T02:55:12;99263.69;;;3.44;76.15
28181;BME280;15464;50.988;10.318;2023-04-27T02:57:39;99272.41;;;3.45;75.27
28181;BME280;15464;50.988;10.318;2023-04-27T03:00:07;99273.66;;;3.38;75.76
28181;BME280;15464;50.988;10.318;2023-04-27T03:02:35;99272.59;;;3.42;76.18
28181;BME280;15464;50.988;10.318;2023-04-27T03:05:02;99262.09;;;3.42;75.86
28181;BME280;15464;50.988;10.318;2023-04-27T03:07:30;99282.91;;;3.45;76.39
28181;BME280;15464;50.988;10.318;2023-04-27T03:09:57;99284.59;;;3.46;76.33
28181;BME280;15464;50.988;10.318;2023-04-27T03:12:24;99286.31;;;3.47;75.57
28181;BME280;15464;50.988;10.318;2023-04-27T03:14:50;99288.16;;;3.45;75.50
28181;BME280;15464;50.988;10.318;2023-04-27T03:17:17;99288.06;;;3.46;75.71
28181;BME280;15464;50.988;10.318;2023-04-27T03:19:46;99286.31;;;3.47;75.63
28181;BME280;15464;50.988;10.318;2023-04-27T03:22:13;99281.06;;;3.47;75.64
28181;BME280;15464;50.988;10.318;2023-04-27T03:24:40;99289.84;;;3.46;76.39
28181;BME280;15464;50.988;10.318;2023-04-27T03:27:06;99288.94;;;3.47;76.52
28181;BME280;15464;50.988;10.318;2023-04-27T03:29:33;99288.00;;;3.48;76.02
28181;BME280;15464;50.988;10.318;2023-04-27T03:32:00;99297.72;;;3.46;74.89
28181;BME280;15464;50.988;10.318;2023-04-27T03:34:27;99288.47;;;3.39;74.93
28181;BME280;15464;50.988;10.318;2023-04-27T03:36:53;99289.38;;;3.38;74.96
28181;BME280;15464;50.988;10.318;2023-04-27T03:39:20;99293.72;;;3.39;74.97
28181;BME280;15464;50.988;10.318;2023-04-27T03:41:47;99291.69;;;3.44;75.29
28181;BME280;15464;50.988;10.318;2023-04-27T03:44:13;99295.03;;;3.47;75.79
28181;BME280;15464;50.988;10.318;2023-04-27T03:46:40;99301.19;;;3.46;76.22
28181;BME280;15464;50.988;10.318;2023-04-27T03:49:07;99303.75;;;3.48;76.07
28181;BME280;15464;50.988;10.318;2023-04-27T03:51:34;99298.31;;;3.51;76.41
28181;BME280;15464;50.988;10.318;2023-04-27T03:54:00;99291.25;;;3.53;76.87
28181;BME280;15464;50.988;10.318;2023-04-27T03:56:27;99292.94;;;3.54;76.40
28181;BME280;15464;50.988;10.318;2023-04-27T03:58:54;99299.88;;;3.55;77.47
28181;BME280;15464;50.988;10.318;2023-04-27T04:01:20;99298.97;;;3.56;77.66
28181;BME280;15464;50.988;10.318;2023-04-27T04:03:47;99297.25;;;3.55;77.54
28181;BME280;15464;50.988;10.318;2023-04-27T04:06:14;99297.34;;;3.53;78.12
28181;BME280;15464;50.988;10.318;2023-04-27T04:08:41;99296.34;;;3.56;76.77
28181;BME280;15464;50.988;10.318;2023-04-27T04:11:07;99292.16;;;3.52;76.74
28181;BME280;15464;50.988;10.318;2023-04-27T04:13:34;99285.22;;;3.51;77.63
28181;BME280;15464;50.988;10.318;2023-04-27T04:16:03;99276.34;;;3.53;78.09
28181;BME280;15464;50.988;10.318;2023-04-27T04:18:30;99270.19;;;3.54;78.00
28181;BME280;15464;50.988;10.318;2023-04-27T04:20:57;99285.16;;;3.52;77.91
28181;BME280;15464;50.988;10.318;2023-04-27T04:23:24;99299.09;;;3.53;78.13
28181;BME280;15464;50.988;10.318;2023-04-27T04:25:51;99293.94;;;3.51;77.81
28181;BME280;15464;50.988;10.318;2023-04-27T04:28:18;99293.84;;;3.53;77.67
28181;BME280;15464;50.988;10.318;2023-04-27T04:30:44;99285.22;;;3.51;77.60
28181;BME280;15464;50.988;10.318;2023-04-27T04:33:11;99286.84;;;3.53;77.47
28181;BME280;15464;50.988;10.318;2023-04-27T04:35:38;99289.41;;;3.55;77.45
28181;BME280;15464;50.988;10.318;2023-04-27T04:38:05;99291.91;;;3.56;78.02
28181;BME280;15464;50.988;10.318;2023-04-27T04:40:32;99285.00;;;3.55;77.22
28181;BME280;15464;50.988;10.318;2023-04-27T04:42:58;99277.88;;;3.57;77.13
28181;BME280;15464;50.988;10.318;2023-04-27T04:45:25;99270.78;;;3.59;76.93
28181;BME280;15464;50.988;10.318;2023-04-27T04:47:52;99279.59;;;3.58;77.05
28181;BME280;15464;50.988;10.318;2023-04-27T04:50:20;99280.69;;;3.54;77.30
28181;BME280;15464;50.988;10.318;2023-04-27T04:52:46;99282.53;;;3.52;77.61
28181;BME280;15464;50.988;10.318;2023-04-27T04:55:13;99288.63;;;3.53;77.42
28181;BME280;15464;50.988;10.318;2023-04-27T04:57:40;99288.47;;;3.56;77.94
28181;BME280;15464;50.988;10.318;2023-04-27T05:00:07;99296.94;;;3.61;78.59
28181;BME280;15464;50.988;10.318;2023-04-27T05:02:39;99291.59;;;3.62;79.29
28181;BME280;15464;50.988;10.318;2023-04-27T05:05:07;99295.72;;;3.68;78.68
28181;BME280;15464;50.988;10.318;2023-04-27T05:07:34;99291.06;;;3.73;78.75
28181;BME280;15464;50.988;10.318;2023-04-27T05:10:01;99290.88;;;3.76;78.10
28181;BME280;15464;50.988;10.318;2023-04-27T05:12:27;99303.00;;;3.79;78.25
28181;BME280;15464;50.988;10.318;2023-04-27T05:14:54;99303.53;;;3.85;78.78
28181;BME280;15464;50.988;10.318;2023-04-27T05:17:21;99301.59;;;3.89;79.26
28181;BME280;15464;50.988;10.318;2023-04-27T05:19:47;99310.16;;;3.92;79.05
28181;BME280;15464;50.988;10.318;2023-04-27T05:22:14;99310.91;;;3.94;78.73
28181;BME280;15464;50.988;10.318;2023-04-27T05:24:41;99315.84;;;4.00;78.83
28181;BME280;15464;50.988;10.318;2023-04-27T05:27:08;99317.63;;;4.00;78.24
28181;BME280;15464;50.988;10.318;2023-04-27T05:29:34;99324.34;;;4.05;78.48
28181;BME280;15464;50.988;10.318;2023-04-27T05:32:01;99328.50;;;4.10;79.00
28181;BME280;15464;50.988;10.318;2023-04-27T05:34:28;99322.06;;;4.15;78.52
28181;BME280;15464;50.988;10.318;2023-04-27T05:36:55;99326.00;;;4.24;78.11
28181;BME280;15464;50.988;10.318;2023-04-27T05:39:22;99315.16;;;4.30;78.00
28181;BME280;15464;50.988;10.318;2023-04-27T05:41:49;99314.63;;;4.39;77.26
28181;BME280;15464;50.988;10.318;2023-04-27T05:44:15;99315.84;;;4.49;77.73
28181;BME280;15464;50.988;10.318;2023-04-27T05:46:42;99317.19;;;4.56;78.38
28181;BME280;15464;50.988;10.318;2023-04-27T05:49:08;99319.41;;;4.64;78.01
28181;BME280;15464;50.988;10.318;2023-04-27T05:51:35;99319.81;;;4.56;77.14
28181;BME280;15464;50.988;10.318;2023-04-27T05:54:03;99320.09;;;4.67;77.29
28181;BME280;15464;50.988;10.318;2023-04-27T05:56:30;99323.91;;;4.77;77.33
28181;BME280;15464;50.988;10.318;2023-04-27T05:58:57;99329.38;;;4.88;75.60
28181;BME280;15464;50.988;10.318;2023-04-27T06:01:26;99330.09;;;4.92;74.82
28181;BME280;15464;50.988;10.318;2023-04-27T06:03:53;99333.28;;;4.97;74.48
28181;BME280;15464;50.988;10.318;2023-04-27T06:06:20;99329.81;;;4.97;74.42
28181;BME280;15464;50.988;10.318;2023-04-27T06:08:46;99322.69;;;4.99;73.98
28181;BME280;15464;50.988;10.318;2023-04-27T06:11:13;99327.69;;;5.03;74.03
28181;BME280;15464;50.988;10.318;2023-04-27T06:13:40;99330.47;;;5.16;74.46
28181;BME280;15464;50.988;10.318;2023-04-27T06:16:07;99331.03;;;5.37;74.50
28181;BME280;15464;50.988;10.318;2023-04-27T06:18:33;99338.00;;;5.52;74.79
28181;BME280;15464;50.988;10.318;2023-04-27T06:21:00;99336.56;;;5.62;73.58
28181;BME280;15464;50.988;10.318;2023-04-27T06:23:27;99334.50;;;5.67;73.26
28181;BME280;15464;50.988;10.318;2023-04-27T06:25:54;99346.16;;;5.77;73.11
28181;BME280;15464;50.988;10.318;2023-04-27T06:28:21;99345.19;;;5.64;70.50
28181;BME280;15464;50.988;10.318;2023-04-27T06:30:48;99345.31;;;5.77;70.47
28181;BME280;15464;50.988;10.318;2023-04-27T06:33:14;99339.25;;;5.90;70.38
28181;BME280;15464;50.988;10.318;2023-04-27T06:35:41;99339.81;;;5.95;69.40
28181;BME280;15464;50.988;10.318;2023-04-27T06:38:12;99337.09;;;5.97;69.77
28181;BME280;15464;50.988;10.318;2023-04-27T06:40:39;99339.38;;;6.17;70.47
28181;BME280;15464;50.988;10.318;2023-04-27T06:43:05;99340.59;;;6.26;69.09
28181;BME280;15464;50.988;10.318;2023-04-27T06:45:32;99348.56;;;6.38;68.52
28181;BME280;15464;50.988;10.318;2023-04-27T06:47:59;99349.34;;;6.55;66.72
28181;BME280;15464;50.988;10.318;2023-04-27T06:50:26;99351.22;;;6.53;66.29
28181;BME280;15464;50.988;10.318;2023-04-27T06:52:53;99351.41;;;6.50;67.56
28181;BME280;15464;50.988;10.318;2023-04-27T06:55:19;99354.03;;;6.64;68.89
28181;BME280;15464;50.988;10.318;2023-04-27T06:57:46;99351.16;;;6.81;67.95
28181;BME280;15464;50.988;10.318;2023-04-27T07:00:13;99338.44;;;6.87;67.49
28181;BME280;15464;50.988;10.318;2023-04-27T07:02:39;99336.44;;;7.05;66.81
28181;BME280;15464;50.988;10.318;2023-04-27T07:05:06;99346.13;;;7.05;66.60
28181;BME280;15464;50.988;10.318;2023-04-27T07:07:33;99340.91;;;7.17;65.31
28181;BME280;15464;50.988;10.318;2023-04-27T07:10:00;99344.56;;;7.42;66.43
28181;BME280;15464;50.988;10.318;2023-04-27T07:12:26;99345.91;;;7.74;66.89
28181;BME280;15464;50.988;10.318;2023-04-27T07:14:53;99346.22;;;7.95;66.99
28181;BME280;15464;50.988;10.318;2023-04-27T07:17:20;99342.88;;;8.05;64.71
28181;BME280;15464;50.988;10.318;2023-04-27T07:19:46;99350.16;;;8.02;64.59
28181;BME280;15464;50.988;10.318;2023-04-27T07:22:13;99342.47;;;8.24;63.18
28181;BME280;15464;50.988;10.318;2023-04-27T07:24:41;99333.13;;;8.44;63.40
28181;BME280;15464;50.988;10.318;2023-04-27T07:27:08;99328.72;;;8.81;62.77
28181;BME280;15464;50.988;10.318;2023-04-27T07:29:35;99335.72;;;9.06;59.91
28181;BME280;15464;50.988;10.318;2023-04-27T07:32:08;99333.94;;;9.30;58.36
28181;BME280;15464;50.988;10.318;2023-04-27T07:34:34;99337.75;;;9.26;57.21
28181;BME280;15464;50.988;10.318;2023-04-27T07:37:18;99340.69;;;9.34;53.57
28181;BME280;15464;50.988;10.318;2023-04-27T07:39:45;99346.44;;;9.28;53.60
28181;BME280;15464;50.988;10.318;2023-04-27T07:42:12;99346.09;;;9.09;53.80
28181;BME280;15464;50.988;10.318;2023-04-27T07:44:39;99337.59;;;8.93;52.52
28181;BME280;15464;50.988;10.318;2023-04-27T07:47:06;99347.34;;;9.16;55.31
28181;BME280;15464;50.988;10.318;2023-04-27T07:49:33;99349.09;;;9.04;54.62
28181;BME280;15464;50.988;10.318;2023-04-27T07:52:00;99356.63;;;9.21;53.54
28181;BME280;15464;50.988;10.318;2023-04-27T07:54:27;99359.91;;;9.49;54.00
28181;BME280;15464;50.988;10.318;2023-04-27T07:56:54;99357.75;;;9.54;54.48
28181;BME280;15464;50.988;10.318;2023-04-27T07:59:21;99352.34;;;9.31;54.63
28181;BME280;15464;50.988;10.318;2023-04-27T08:01:47;99336.28;;;9.81;55.00
28181;BME280;15464;50.988;10.318;2023-04-27T08:04:14;99345.97;;;10.04;54.74
28181;BME280;15464;50.988;10.318;2023-04-27T08:06:41;99347.19;;;10.11;54.12
28181;BME280;15464;50.988;10.318;2023-04-27T08:09:09;99346.19;;;9.90;50.66
28181;BME280;15464;50.988;10.318;2023-04-27T08:11:35;99343.06;;;9.96;49.57
28181;BME280;15464;50.988;10.318;2023-04-27T08:14:02;99347.19;;;10.11;48.41
28181;BME280;15464;50.988;10.318;2023-04-27T08:16:29;99338.22;;;9.79;45.70
28181;BME280;15464;50.988;10.318;2023-04-27T08:18:56;99339.50;;;10.19;48.71
28181;BME280;15464;50.988;10.318;2023-04-27T08:21:26;99337.13;;;10.38;47.63
28181;BME280;15464;50.988;10.318;2023-04-27T08:23:54;99339.78;;;10.38;48.22
28181;BME280;15464;50.988;10.318;2023-04-27T08:26:20;99335.69;;;10.45;47.43
28181;BME280;15464;50.988;10.318;2023-04-27T08:28:51;99330.13;;;10.26;47.47
28181;BME280;15464;50.988;10.318;2023-04-27T08:31:17;99335.69;;;10.34;47.43
28181;BME280;15464;50.988;10.318;2023-04-27T08:33:44;99332.97;;;10.12;47.46
28181;BME280;15464;50.988;10.318;2023-04-27T08:36:10;99326.03;;;10.33;47.26
28181;BME280;15464;50.988;10.318;2023-04-27T08:38:37;99327.72;;;10.34;46.42
28181;BME280;15464;50.988;10.318;2023-04-27T08:41:04;99328.44;;;10.25;47.38
28181;BME280;15464;50.988;10.318;2023-04-27T08:43:47;99318.09;;;10.22;48.57
28181;BME280;15464;50.988;10.318;2023-04-27T08:46:19;99319.69;;;10.01;47.76
28181;BME280;15464;50.988;10.318;2023-04-27T08:48:51;99315.88;;;10.16;47.43
28181;BME280;15464;50.988;10.318;2023-04-27T08:51:19;99308.88;;;10.04;47.32
28181;BME280;15464;50.988;10.318;2023-04-27T08:53:53;99320.91;;;9.86;46.88
28181;BME280;15464;50.988;10.318;2023-04-27T08:56:24;99320.16;;;9.95;47.13
28181;BME280;15464;50.988;10.318;2023-04-27T08:58:51;99320.34;;;9.69;47.30
28181;BME280;15464;50.988;10.318;2023-04-27T09:01:18;99317.84;;;9.68;46.16
28181;BME280;15464;50.988;10.318;2023-04-27T09:03:45;99318.66;;;9.68;45.54
28181;BME280;15464;50.988;10.318;2023-04-27T09:06:13;99321.00;;;9.84;46.43
28181;BME280;15464;50.988;10.318;2023-04-27T09:08:47;99320.16;;;9.84;45.25
28181;BME280;15464;50.988;10.318;2023-04-27T09:11:26;99313.75;;;9.40;45.39
28181;BME280;15464;50.988;10.318;2023-04-27T09:13:53;99312.50;;;9.57;46.38
28181;BME280;15464;50.988;10.318;2023-04-27T09:16:24;99310.31;;;9.51;45.69
28181;BME280;15464;50.988;10.318;2023-04-27T09:18:51;99311.63;;;9.45;45.77
28181;BME280;15464;50.988;10.318;2023-04-27T09:21:26;99316.69;;;9.48;44.88
28181;BME280;15464;50.988;10.318;2023-04-27T09:23:54;99311.41;;;9.48;46.37
28181;BME280;15464;50.988;10.318;2023-04-27T09:26:26;99310.97;;;9.65;46.23
28181;BME280;15464;50.988;10.318;2023-04-27T09:28:54;99310.72;;;9.68;46.30
28181;BME280;15464;50.988;10.318;2023-04-27T09:31:33;99298.78;;;9.63;45.85
28181;BME280;15464;50.988;10.318;2023-04-27T09:34:01;99310.72;;;9.68;45.38
28181;BME280;15464;50.988;10.318;2023-04-27T09:36:29;99311.44;;;9.70;46.05
28181;BME280;15464;50.988;10.318;2023-04-27T09:38:57;99303.28;;;9.74;44.60
28181;BME280;15464;50.988;10.318;2023-04-27T09:41:28;99297.25;;;9.71;44.26
28181;BME280;15464;50.988;10.318;2023-04-27T09:43:55;99292.34;;;9.78;44.89
28181;BME280;15464;50.988;10.318;2023-04-27T09:46:23;99294.63;;;9.83;44.81
28181;BME280;15464;50.988;10.318;2023-04-27T09:48:51;99294.78;;;9.92;45.52
28181;BME280;15464;50.988;10.318;2023-04-27T09:51:19;99297.75;;;9.88;45.62
28181;BME280;15464;50.988;10.318;2023-04-27T09:53:50;99297.38;;;9.70;45.53
28181;BME280;15464;50.988;10.318;2023-04-27T09:59:44;99292.44;;;9.77;46.31
28181;BME280;15464;50.988;10.318;2023-04-27T10:02:16;99292.72;;;9.85;46.18
28181;BME280;15464;50.988;10.318;2023-04-27T10:07:37;99289.00;;;10.09;46.33
28181;BME280;15464;50.988;10.318;2023-04-27T10:10:05;99283.38;;;10.25;46.29
28181;BME280;15464;50.988;10.318;2023-04-27T10:12:34;99287.94;;;10.45;45.52
28181;BME280;15464;50.988;10.318;2023-04-27T10:15:14;99286.03;;;10.47;43.64
28181;BME280;15464;50.988;10.318;2023-04-27T10:17:47;99280.00;;;10.34;43.20
28181;BME280;15464;50.988;10.318;2023-04-27T10:20:15;99282.91;;;10.42;43.75
28181;BME280;15464;50.988;10.318;2023-04-27T10:22:45;99276.25;;;10.48;44.36
28181;BME280;15464;50.988;10.318;2023-04-27T10:25:13;99276.13;;;10.38;43.76
28181;BME280;15464;50.988;10.318;2023-04-27T10:27:42;99268.28;;;10.59;44.68
28181;BME280;15464;50.988;10.318;2023-04-27T10:30:10;99281.06;;;10.65;44.54
28181;BME280;15464;50.988;10.318;2023-04-27T10:32:37;99278.28;;;10.67;43.15
28181;BME280;15464;50.988;10.318;2023-04-27T10:35:05;99284.94;;;10.61;42.70
28181;BME280;15464;50.988;10.318;2023-04-27T10:37:41;99272.38;;;10.74;43.58
28181;BME280;15464;50.988;10.318;2023-04-27T10:40:10;99273.50;;;11.04;42.51
28181;BME280;15464;50.988;10.318;2023-04-27T10:42:40;99273.31;;;11.16;44.36
28181;BME280;15464;50.988;10.318;2023-04-27T10:45:07;99270.09;;;11.33;43.27
28181;BME280;15464;50.988;10.318;2023-04-27T10:47:42;99265.69;;;11.44;43.17
28181;BME280;15464;50.988;10.318;2023-04-27T10:50:11;99267.47;;;11.54;44.67
28181;BME280;15464;50.988;10.318;2023-04-27T10:52:44;99269.50;;;11.83;43.88
28181;BME280;15464;50.988;10.318;2023-04-27T10:55:16;99263.56;;;12.00;44.51
28181;BME280;15464;50.988;10.318;2023-04-27T10:57:49;99261.75;;;12.00;44.40
28181;BME280;15464;50.988;10.318;2023-04-27T11:00:35;99261.22;;;12.06;44.91
28181;BME280;15464;50.988;10.318;2023-04-27T11:03:20;99256.00;;;11.54;41.53
28181;BME280;15464;50.988;10.318;2023-04-27T11:05:48;99252.72;;;12.12;44.67
28181;BME280;15464;50.988;10.318;2023-04-27T11:08:24;99243.75;;;12.44;41.25
28181;BME280;15464;50.988;10.318;2023-04-27T11:10:51;99248.38;;;12.42;40.54
28181;BME280;15464;50.988;10.318;2023-04-27T11:13:23;99233.50;;;12.39;40.25
28181;BME280;15464;50.988;10.318;2023-04-27T11:15:55;99238.72;;;12.41;40.33
28181;BME280;15464;50.988;10.318;2023-04-27T11:18:25;99243.28;;;12.29;40.54
28181;BME280;15464;50.988;10.318;2023-04-27T11:20:54;99242.50;;;12.48;40.50
28181;BME280;15464;50.988;10.318;2023-04-27T11:23:31;99247.16;;;12.16;40.63
28181;BME280;15464;50.988;10.318;2023-04-27T11:26:23;99248.88;;;11.96;40.41
28181;BME280;15464;50.988;10.318;2023-04-27T11:29:00;99243.44;;;11.97;40.74
28181;BME280;15464;50.988;10.318;2023-04-27T11:31:47;99244.94;;;11.90;40.10
28181;BME280;15464;50.988;10.318;2023-04-27T11:34:22;99245.66;;;12.23;39.71
28181;BME280;15464;50.988;10.318;2023-04-27T11:36:56;99235.28;;;12.88;40.07
28181;BME280;15464;50.988;10.318;2023-04-27T11:39:43;99237.81;;;12.90;39.74
28181;BME280;15464;50.988;10.318;2023-04-27T11:47:20;99239.03;;;12.57;39.34
28181;BME280;15464;50.988;10.318;2023-04-27T11:49:49;99231.69;;;13.09;38.36
28181;BME280;15464;50.988;10.318;2023-04-27T11:52:16;99243.16;;;12.80;38.31
28181;BME280;15464;50.988;10.318;2023-04-27T11:54:51;99241.63;;;12.38;38.83
28181;BME280;15464;50.988;10.318;2023-04-27T11:57:26;99236.84;;;12.91;38.20
28181;BME280;15464;50.988;10.318;2023-04-27T11:59:58;99228.91;;;13.39;38.01
28181;BME280;15464;50.988;10.318;2023-04-27T12:02:28;99227.75;;;13.61;37.11
28181;BME280;15464;50.988;10.318;2023-04-27T12:04:57;99229.97;;;14.12;37.67
28181;BME280;15464;50.988;10.318;2023-04-27T12:07:25;99221.06;;;13.94;37.56
28181;BME280;15464;50.988;10.318;2023-04-27T12:09:52;99223.84;;;14.02;38.55
28181;BME280;15464;50.988;10.318;2023-04-27T12:12:19;99209.28;;;14.61;37.19
28181;BME280;15464;50.988;10.318;2023-04-27T12:14:48;99212.88;;;14.87;35.29
28181;BME280;15464;50.988;10.318;2023-04-27T12:17:16;99211.63;;;14.64;36.79
28181;BME280;15464;50.988;10.318;2023-04-27T12:19:43;99206.38;;;14.54;36.99
28181;BME280;15464;50.988;10.318;2023-04-27T12:22:10;99213.31;;;14.65;36.49
28181;BME280;15464;50.988;10.318;2023-04-27T12:24:37;99202.50;;;14.66;36.58
28181;BME280;15464;50.988;10.318;2023-04-27T12:27:03;99203.91;;;14.33;36.51
28181;BME280;15464;50.988;10.318;2023-04-27T12:29:30;99197.00;;;14.68;36.61
28181;BME280;15464;50.988;10.318;2023-04-27T12:31:57;99184.19;;;14.89;35.71
28181;BME280;15464;50.988;10.318;2023-04-27T12:34:24;99188.69;;;15.06;35.36
28181;BME280;15464;50.988;10.318;2023-04-27T12:36:51;99190.44;;;15.33;34.82
28181;BME280;15464;50.988;10.318;2023-04-27T12:39:19;99184.03;;;15.69;34.60
28181;BME280;15464;50.988;10.318;2023-04-27T12:41:47;99186.00;;;15.93;36.08
28181;BME280;15464;50.988;10.318;2023-04-27T12:44:14;99172.22;;;16.56;35.96
28181;BME280;15464;50.988;10.318;2023-04-27T12:46:43;99161.31;;;16.49;35.10
28181;BME280;15464;50.988;10.318;2023-04-27T12:49:10;99170.53;;;16.05;34.96
28181;BME280;15464;50.988;10.318;2023-04-27T12:51:40;99173.38;;;16.03;35.22
28181;BME280;15464;50.988;10.318;2023-04-27T12:54:08;99167.63;;;16.82;34.69
28181;BME280;15464;50.988;10.318;2023-04-27T12:56:35;99168.31;;;17.01;34.09
28181;BME280;15464;50.988;10.318;2023-04-27T12:59:02;99165.47;;;17.26;33.62
28181;BME280;15464;50.988;10.318;2023-04-27T13:01:29;99167.81;;;17.62;34.40
28181;BME280;15464;50.988;10.318;2023-04-27T13:04:01;99166.25;;;17.92;32.38
28181;BME280;15464;50.988;10.318;2023-04-27T13:06:29;99160.50;;;18.03;34.70
28181;BME280;15464;50.988;10.318;2023-04-27T13:09:00;99163.75;;;17.90;31.24
28181;BME280;15464;50.988;10.318;2023-04-27T13:11:28;99161.81;;;18.15;31.33
28181;BME280;15464;50.988;10.318;2023-04-27T13:13:54;99168.72;;;18.01;31.72